Terminal Aerodrome Forecast
Issued by NWS

Home | Current Version | Previous Version | Text Only | Print | Product List | Glossary On
Versions: 1 2 3 4 5 6 7 8 9 10 11 12
000
FTUS42 KGSP 291120
TAFAND
TAF
KAND 291120Z 2912/3012 21003KT P6SM SCT250
     FM291600 21006G14KT P6SM FEW110 SCT250
     FM292000 21010G17KT P6SM SCT090 BKN180
     FM292300 21006G14KT P6SM SCT060 BKN090
     FM300500 25006G14KT P6SM BKN050
     FM300800 29008G15KT P6SM FEW060 SCT110 BKN250=

USA.gov is the U.S. government's official web portal to all federal, state and local government web resources and services.